Time;durP1;ratioP1;P1;durP2;ratioP2;P2;SDS_P1;SDS_P2;PMS_P1;PMS_P2;Temp;Humidity;BMP_temperature;BMP_pressure;BME280_temperature;BME280_humidity;BME280_pressure;Samples;Min_cycle;Max_cycle;Signal;HPM_P1;HPM_P2
2022/04/23 00:01:42;;;;;;;2.13;2.03;;;;;;;;;;5031611;28;20169;-63
2022/04/23 00:04:08;;;;;;;1.52;1.52;;;;;;;;;;5031821;28;20412;-63
2022/04/23 00:06:34;;;;;;;1.33;1.33;;;;;;;;;;5031778;28;20181;-63
2022/04/23 00:09:00;;;;;;;1.80;1.80;;;;;;;;;;5031732;28;20750;-62
2022/04/23 00:11:26;;;;;;;1.88;1.85;;;;;;;;;;5031705;28;20439;-62
2022/04/23 00:13:52;;;;;;;1.30;1.30;;;;;;;;;;5032073;28;20169;-62
2022/04/23 00:16:19;;;;;;;1.40;1.40;;;;;;;;;;5031744;28;20486;-63
2022/04/23 00:18:45;;;;;;;2.15;2.13;;;;;;;;;;5031600;28;20282;-63
2022/04/23 00:21:11;;;;;;;1.67;1.67;;;;;;;;;;5031363;28;20204;-62
2022/04/23 00:23:37;;;;;;;1.00;1.00;;;;;;;;;;5031502;28;20973;-62
2022/04/23 00:26:03;;;;;;;1.00;1.00;;;;;;;;;;5031540;28;20443;-62
2022/04/23 00:28:29;;;;;;;1.70;1.70;;;;;;;;;;5031329;28;20491;-63
2022/04/23 00:30:55;;;;;;;1.40;1.40;;;;;;;;;;5031269;28;20447;-63
2022/04/23 00:33:21;;;;;;;2.17;2.08;;;;;;;;;;5031552;28;20442;-63
2022/04/23 00:35:50;;;;;;;1.73;1.73;;;;;;;;;;5031417;28;20235;-61
2022/04/23 00:38:17;;;;;;;1.40;1.40;;;;;;;;;;5031205;28;20466;-62
2022/04/23 00:40:44;;;;;;;1.20;1.20;;;;;;;;;;5031162;28;20173;-62
2022/04/23 00:43:24;;;;;;;1.63;1.63;;;;;;;;;;5031380;28;20184;-63
2022/04/23 00:45:50;;;;;;;1.77;1.77;;;;;;;;;;5031328;28;20176;-62
2022/04/23 00:48:16;;;;;;;2.07;1.97;;;;;;;;;;5031235;28;20201;-62
2022/04/23 00:50:42;;;;;;;2.35;2.25;;;;;;;;;;5034658;28;20426;-63
2022/04/23 00:53:09;;;;;;;1.88;1.88;;;;;;;;;;5035224;28;20204;-63
2022/04/23 00:55:35;;;;;;;2.55;2.45;;;;;;;;;;5016702;28;20181;-63
2022/04/23 00:58:02;;;;;;;2.22;2.20;;;;;;;;;;5015175;28;20212;-63
2022/04/23 01:00:28;;;;;;;3.05;3.00;;;;;;;;;;5015072;28;20180;-63
2022/04/23 01:02:54;;;;;;;3.90;3.80;;;;;;;;;;5015193;28;20739;-62
2022/04/23 01:05:23;;;;;;;3.03;2.92;;;;;;;;;;5015141;28;20900;-63
2022/04/23 01:07:50;;;;;;;2.80;2.70;;;;;;;;;;5015113;28;20623;-62
2022/04/23 01:10:16;;;;;;;3.17;3.08;;;;;;;;;;5014922;28;20184;-62
2022/04/23 01:12:44;;;;;;;2.20;2.20;;;;;;;;;;5015015;28;20177;-62
2022/04/23 01:15:11;;;;;;;2.63;2.53;;;;;;;;;;5015008;28;20419;-62
2022/04/23 01:17:37;;;;;;;3.17;3.08;;;;;;;;;;5014676;28;20213;-62
2022/04/23 01:20:11;;;;;;;3.05;2.95;;;;;;;;;;5014818;28;20231;-62
2022/04/23 01:22:37;;;;;;;2.08;2.08;;;;;;;;;;5014913;28;20663;-62
2022/04/23 01:25:06;;;;;;;3.70;3.60;;;;;;;;;;5014961;28;20188;-62
2022/04/23 01:27:32;;;;;;;2.17;2.17;;;;;;;;;;5014175;28;20558;-62
2022/04/23 01:29:58;;;;;;;2.55;2.45;;;;;;;;;;5014694;28;20174;-62
2022/04/23 01:32:24;;;;;;;2.78;2.75;;;;;;;;;;5014459;28;20177;-62
2022/04/23 01:34:50;;;;;;;2.60;2.50;;;;;;;;;;5014605;28;20249;-62
2022/04/23 01:37:20;;;;;;;2.40;2.30;;;;;;;;;;5014470;28;20209;-62
2022/04/23 01:39:49;;;;;;;1.95;1.90;;;;;;;;;;5014693;28;20169;-63
2022/04/23 01:42:17;;;;;;;2.72;2.63;;;;;;;;;;5014369;28;20228;-62
2022/04/23 01:44:44;;;;;;;1.38;1.38;;;;;;;;;;5014453;28;20169;-62
2022/04/23 01:47:10;;;;;;;1.95;1.85;;;;;;;;;;5014570;28;20211;-62
2022/04/23 01:49:36;;;;;;;1.40;1.40;;;;;;;;;;5014330;28;20708;-62
2022/04/23 01:52:02;;;;;;;1.63;1.63;;;;;;;;;;5014124;28;20962;-62
2022/04/23 01:54:28;;;;;;;1.55;1.55;;;;;;;;;;5014351;28;20408;-62
2022/04/23 01:56:57;;;;;;;1.50;1.50;;;;;;;;;;5014128;28;20209;-62
2022/04/23 01:59:23;;;;;;;1.35;1.35;;;;;;;;;;5014257;28;20415;-62
2022/04/23 02:01:49;;;;;;;1.10;1.10;;;;;;;;;;5012471;28;20170;-63
2022/04/23 02:04:15;;;;;;;1.48;1.48;;;;;;;;;;5014426;28;20589;-62
2022/04/23 02:06:41;;;;;;;2.10;2.00;;;;;;;;;;5014060;28;20260;-62
2022/04/23 02:09:07;;;;;;;1.03;1.03;;;;;;;;;;5014034;28;20830;-61
2022/04/23 02:11:33;;;;;;;1.00;1.00;;;;;;;;;;5013676;28;20466;-62
2022/04/23 02:14:00;;;;;;;1.30;1.30;;;;;;;;;;5013927;28;20503;-63
2022/04/23 02:16:27;;;;;;;1.20;1.20;;;;;;;;;;5013713;28;20463;-63
2022/04/23 02:18:53;;;;;;;1.00;1.00;;;;;;;;;;5013977;28;20240;-63
2022/04/23 02:21:19;;;;;;;0.90;0.90;;;;;;;;;;5013545;28;20212;-61
2022/04/23 02:23:45;;;;;;;0.90;0.90;;;;;;;;;;5013842;28;20401;-61
2022/04/23 02:26:11;;;;;;;0.93;0.93;;;;;;;;;;5013700;28;20459;-62
2022/04/23 02:28:38;;;;;;;0.90;0.90;;;;;;;;;;5013505;28;20589;-62
2022/04/23 02:31:04;;;;;;;1.30;1.30;;;;;;;;;;5013225;28;20440;-62
2022/04/23 02:33:30;;;;;;;0.90;0.90;;;;;;;;;;5013601;28;20193;-62
2022/04/23 02:35:57;;;;;;;0.80;0.80;;;;;;;;;;5013526;28;20169;-62
2022/04/23 02:38:23;;;;;;;0.75;0.75;;;;;;;;;;5013348;28;20459;-62
2022/04/23 02:40:49;;;;;;;0.87;0.87;;;;;;;;;;5013198;28;20185;-62
2022/04/23 02:43:15;;;;;;;1.23;1.23;;;;;;;;;;5013689;28;20416;-62
2022/04/23 02:45:41;;;;;;;1.20;1.20;;;;;;;;;;5013199;28;20448;-62
2022/04/23 02:48:10;;;;;;;0.90;0.90;;;;;;;;;;5013260;28;20201;-63
2022/04/23 02:50:37;;;;;;;1.10;1.10;;;;;;;;;;5013029;28;20172;-63
2022/04/23 02:53:04;;;;;;;1.27;1.27;;;;;;;;;;5013227;28;20166;-63
2022/04/23 02:55:31;;;;;;;1.73;1.73;;;;;;;;;;5013167;28;20530;-63
2022/04/23 02:58:00;;;;;;;1.52;1.52;;;;;;;;;;5013016;28;20231;-62
2022/04/23 03:00:26;;;;;;;2.10;2.00;;;;;;;;;;5012726;28;20580;-63
2022/04/23 03:02:52;;;;;;;1.65;1.60;;;;;;;;;;5013059;28;20227;-63
2022/04/23 03:05:18;;;;;;;1.95;1.85;;;;;;;;;;5013099;28;20200;-63
2022/04/23 03:07:45;;;;;;;1.95;1.88;;;;;;;;;;5012846;28;20663;-63
2022/04/23 03:10:12;;;;;;;2.95;2.80;;;;;;;;;;5012674;28;20172;-62
2022/04/23 03:12:38;;;;;;;2.53;2.42;;;;;;;;;;5012359;28;20177;-63
2022/04/23 03:15:08;;;;;;;2.05;1.95;;;;;;;;;;5012674;28;20280;-62
2022/04/23 03:17:34;;;;;;;1.85;1.85;;;;;;;;;;5012605;28;20213;-63
2022/04/23 03:20:01;;;;;;;1.10;1.10;;;;;;;;;;5012715;28;20252;-62
2022/04/23 03:22:27;;;;;;;2.55;2.45;;;;;;;;;;5012508;28;20173;-63
2022/04/23 03:24:53;;;;;;;1.40;1.40;;;;;;;;;;5012624;28;20169;-62
2022/04/23 03:27:19;;;;;;;0.90;0.90;;;;;;;;;;4994643;28;21096;-60
2022/04/23 03:29:45;;;;;;;1.00;1.00;;;;;;;;;;5012757;28;20186;-62
2022/04/23 03:32:11;;;;;;;0.80;0.80;;;;;;;;;;5012554;28;20478;-62
2022/04/23 03:34:37;;;;;;;0.70;0.70;;;;;;;;;;5012539;28;20909;-62
2022/04/23 03:37:05;;;;;;;0.75;0.75;;;;;;;;;;5012267;28;20464;-63
2022/04/23 03:39:30;;;;;;;0.70;0.70;;;;;;;;;;5012373;28;20240;-62
2022/04/23 03:41:56;;;;;;;0.93;0.93;;;;;;;;;;5012048;28;20174;-63
2022/04/23 03:44:22;;;;;;;1.10;1.10;;;;;;;;;;5012267;28;20943;-63
2022/04/23 03:46:48;;;;;;;1.10;1.10;;;;;;;;;;5012200;28;20412;-63
2022/04/23 03:49:14;;;;;;;0.80;0.80;;;;;;;;;;5012241;28;20417;-63
2022/04/23 03:51:41;;;;;;;1.10;1.10;;;;;;;;;;5012026;28;20409;-63
2022/04/23 03:54:07;;;;;;;1.38;1.38;;;;;;;;;;5012193;28;20757;-63
2022/04/23 03:56:33;;;;;;;1.55;1.55;;;;;;;;;;5011957;28;20292;-63
2022/04/23 03:59:00;;;;;;;1.40;1.40;;;;;;;;;;5011957;28;20199;-63
2022/04/23 04:01:27;;;;;;;1.40;1.40;;;;;;;;;;5011902;28;20413;-61
2022/04/23 04:03:53;;;;;;;0.90;0.90;;;;;;;;;;5012095;28;20196;-62
2022/04/23 04:06:19;;;;;;;1.35;1.35;;;;;;;;;;5012021;28;20174;-62
2022/04/23 04:08:50;;;;;;;1.60;1.60;;;;;;;;;;5011975;28;20190;-63
2022/04/23 04:11:15;;;;;;;1.50;1.50;;;;;;;;;;5011650;28;20404;-61
2022/04/23 04:13:42;;;;;;;2.20;2.10;;;;;;;;;;5011876;28;20281;-63
2022/04/23 04:16:08;;;;;;;1.23;1.23;;;;;;;;;;5011820;28;20823;-63
2022/04/23 04:18:34;;;;;;;1.70;1.70;;;;;;;;;;5011786;28;20189;-63
2022/04/23 04:21:01;;;;;;;1.70;1.65;;;;;;;;;;5011582;28;20265;-63
2022/04/23 04:23:27;;;;;;;1.85;1.85;;;;;;;;;;5011125;28;20174;-62
2022/04/23 04:25:53;;;;;;;1.75;1.73;;;;;;;;;;5011767;28;20185;-63
2022/04/23 04:28:20;;;;;;;1.60;1.60;;;;;;;;;;5012656;28;20600;-63
2022/04/23 04:33:31;;;;;;;1.50;1.50;;;;;;;;;;5011818;28;20199;-63
2022/04/23 04:35:57;;;;;;;1.73;1.63;;;;;;;;;;5011768;28;20177;-62
2022/04/23 04:38:23;;;;;;;1.60;1.60;;;;;;;;;;5011642;28;20467;-63
2022/04/23 04:40:49;;;;;;;2.43;2.33;;;;;;;;;;5011367;28;20413;-62
2022/04/23 04:43:15;;;;;;;1.20;1.20;;;;;;;;;;5011549;28;20404;-61
2022/04/23 04:45:41;;;;;;;1.00;1.00;;;;;;;;;;5011552;28;20415;-62
2022/04/23 04:48:07;;;;;;;1.83;1.83;;;;;;;;;;5011487;28;20688;-63
2022/04/23 04:50:33;;;;;;;1.60;1.60;;;;;;;;;;5011284;28;20407;-63
2022/04/23 04:52:59;;;;;;;1.50;1.50;;;;;;;;;;5011522;28;20645;-64
2022/04/23 04:55:25;;;;;;;1.80;1.70;;;;;;;;;;5011490;28;20412;-62
2022/04/23 04:57:51;;;;;;;1.65;1.65;;;;;;;;;;5011473;28;20209;-62
2022/04/23 05:00:18;;;;;;;4.80;4.50;;;;;;;;;;5011223;28;20170;-62
2022/04/23 05:02:44;;;;;;;1.75;1.75;;;;;;;;;;5011483;28;20415;-62
2022/04/23 05:05:10;;;;;;;1.77;1.77;;;;;;;;;;5011362;28;20177;-62
2022/04/23 05:07:36;;;;;;;1.73;1.70;;;;;;;;;;5011220;28;20494;-62
2022/04/23 05:10:03;;;;;;;2.20;2.10;;;;;;;;;;5011186;28;20182;-63
2022/04/23 05:12:29;;;;;;;2.33;2.22;;;;;;;;;;5011222;28;20189;-63
2022/04/23 05:14:55;;;;;;;1.50;1.50;;;;;;;;;;5011264;28;20177;-63
2022/04/23 05:17:21;;;;;;;1.93;1.90;;;;;;;;;;5011158;28;20209;-62
2022/04/23 05:19:47;;;;;;;1.63;1.63;;;;;;;;;;5011170;28;20409;-63
2022/04/23 05:22:12;;;;;;;1.73;1.73;;;;;;;;;;5011230;28;20499;-62
2022/04/23 05:24:38;;;;;;;2.47;2.37;;;;;;;;;;5020539;28;20415;-62
2022/04/23 05:27:04;;;;;;;2.43;2.33;;;;;;;;;;5030660;28;20431;-63
2022/04/23 05:29:30;;;;;;;2.27;2.17;;;;;;;;;;5030818;28;20518;-62
2022/04/23 05:31:56;;;;;;;2.60;2.50;;;;;;;;;;5030516;28;20408;-62
2022/04/23 05:34:24;;;;;;;1.70;1.70;;;;;;;;;;5030930;28;20469;-63
2022/04/23 05:36:50;;;;;;;1.85;1.75;;;;;;;;;;5034271;28;20454;-62
2022/04/23 05:39:16;;;;;;;1.93;1.83;;;;;;;;;;5034301;28;20176;-63
2022/04/23 05:41:42;;;;;;;1.73;1.67;;;;;;;;;;5034155;28;20404;-63
2022/04/23 05:44:08;;;;;;;2.53;2.43;;;;;;;;;;5034399;28;20435;-63
2022/04/23 05:46:34;;;;;;;1.90;1.90;;;;;;;;;;5034179;28;20930;-63
2022/04/23 05:49:00;;;;;;;2.33;2.23;;;;;;;;;;5034102;28;20442;-63
2022/04/23 05:51:26;;;;;;;1.70;1.70;;;;;;;;;;5033983;28;20415;-63
2022/04/23 05:53:52;;;;;;;1.57;1.57;;;;;;;;;;5034137;28;20176;-63
2022/04/23 05:56:18;;;;;;;2.67;2.57;;;;;;;;;;5033975;28;20902;-63
2022/04/23 05:58:44;;;;;;;1.92;1.92;;;;;;;;;;5033993;28;20427;-63
2022/04/23 06:01:10;;;;;;;2.37;2.27;;;;;;;;;;5033093;28;20173;-63
2022/04/23 06:03:36;;;;;;;1.92;1.83;;;;;;;;;;5033911;28;20478;-63
2022/04/23 06:06:02;;;;;;;1.77;1.77;;;;;;;;;;5033883;28;20644;-62
2022/04/23 06:08:28;;;;;;;1.53;1.53;;;;;;;;;;5033797;28;20442;-63
2022/04/23 06:10:54;;;;;;;3.30;3.10;;;;;;;;;;5033501;28;20440;-63
2022/04/23 06:13:20;;;;;;;1.97;1.97;;;;;;;;;;5033793;28;20227;-63
2022/04/23 06:15:46;;;;;;;1.80;1.80;;;;;;;;;;5033643;28;20419;-63
2022/04/23 06:18:12;;;;;;;1.83;1.80;;;;;;;;;;5033503;28;20463;-61
2022/04/23 06:20:37;;;;;;;1.90;1.87;;;;;;;;;;5033385;28;20415;-63
2022/04/23 06:23:04;;;;;;;1.60;1.60;;;;;;;;;;5033622;28;20408;-63
2022/04/23 06:25:31;;;;;;;3.50;3.40;;;;;;;;;;5033595;28;20435;-63
2022/04/23 06:27:57;;;;;;;4.38;4.28;;;;;;;;;;5033323;28;20591;-63
2022/04/23 06:30:23;;;;;;;4.90;4.70;;;;;;;;;;5033203;28;20168;-63
2022/04/23 06:32:49;;;;;;;3.70;3.60;;;;;;;;;;5033347;28;20414;-63
2022/04/23 06:35:14;;;;;;;4.27;4.17;;;;;;;;;;5033292;28;20536;-63
2022/04/23 06:37:41;;;;;;;2.40;2.33;;;;;;;;;;5033200;28;21010;-63
2022/04/23 06:40:11;;;;;;;3.47;3.38;;;;;;;;;;5036015;28;20512;-61
2022/04/23 06:42:38;;;;;;;3.75;3.65;;;;;;;;;;5033217;28;20161;-58
2022/04/23 06:45:05;;;;;;;2.80;2.70;;;;;;;;;;5033182;28;20251;-63
2022/04/23 06:47:30;;;;;;;2.40;2.30;;;;;;;;;;5032224;28;20222;-63
2022/04/23 06:49:57;;;;;;;2.10;2.00;;;;;;;;;;5033068;28;20176;-64
2022/04/23 06:52:24;;;;;;;2.55;2.45;;;;;;;;;;5032815;28;20760;-61
2022/04/23 06:54:51;;;;;;;2.33;2.22;;;;;;;;;;5032926;28;20181;-60
2022/04/23 06:57:17;;;;;;;2.78;2.67;;;;;;;;;;5032350;28;20754;-62
2022/04/23 06:59:43;;;;;;;3.10;3.00;;;;;;;;;;5032729;28;20184;-62
2022/04/23 07:02:09;;;;;;;3.10;3.00;;;;;;;;;;5032615;28;20836;-62
2022/04/23 07:04:36;;;;;;;2.70;2.63;;;;;;;;;;5032773;28;20415;-63
2022/04/23 07:07:02;;;;;;;2.78;2.67;;;;;;;;;;5032692;28;20439;-63
2022/04/23 07:09:27;;;;;;;5.10;4.90;;;;;;;;;;5032672;28;20185;-63
2022/04/23 07:11:53;;;;;;;3.10;3.00;;;;;;;;;;5025136;28;20420;-63
2022/04/23 07:14:19;;;;;;;3.70;3.53;;;;;;;;;;5023469;28;20431;-63
2022/04/23 07:16:47;;;;;;;3.00;2.90;;;;;;;;;;5029677;28;20455;-63
2022/04/23 07:19:13;;;;;;;5.10;4.90;;;;;;;;;;5031793;28;20443;-64
2022/04/23 07:21:39;;;;;;;3.20;3.10;;;;;;;;;;5032246;28;20262;-63
2022/04/23 07:24:07;;;;;;;3.33;3.27;;;;;;;;;;5032290;28;20418;-63
2022/04/23 07:26:34;;;;;;;2.15;2.15;;;;;;;;;;5032186;28;20404;-63
2022/04/23 07:29:00;;;;;;;1.92;1.83;;;;;;;;;;5032144;28;20603;-63
2022/04/23 07:31:27;;;;;;;2.78;2.67;;;;;;;;;;5031554;28;20227;-63
2022/04/23 07:39:22;;;;;;;1.83;1.83;;;;;;;;;;5022192;28;20214;-63
2022/04/23 07:41:48;;;;;;;2.20;2.13;;;;;;;;;;5020851;28;20596;-63
2022/04/23 07:44:14;;;;;;;2.10;2.10;;;;;;;;;;5021226;28;20501;-63
2022/04/23 07:46:40;;;;;;;2.33;2.23;;;;;;;;;;5022714;28;20419;-64
2022/04/23 07:49:06;;;;;;;4.23;4.03;;;;;;;;;;5020189;28;20412;-64
2022/04/23 07:51:31;;;;;;;3.90;3.80;;;;;;;;;;5012371;28;20415;-63
2022/04/23 07:53:57;;;;;;;2.73;2.63;;;;;;;;;;5017356;28;20420;-64
2022/04/23 07:56:23;;;;;;;3.50;3.40;;;;;;;;;;5020068;28;20451;-64
2022/04/23 07:58:49;;;;;;;5.90;5.70;;;;;;;;;;5020332;28;20438;-63
2022/04/23 08:01:16;;;;;;;5.40;5.20;;;;;;;;;;5018747;28;20413;-63
2022/04/23 08:03:42;;;;;;;12.23;11.87;;;;;;;;;;5016939;28;20176;-63
2022/04/23 08:06:10;;;;;;;9.30;9.00;;;;;;;;;;5016008;28;20473;-63
2022/04/23 08:08:36;;;;;;;4.73;4.63;;;;;;;;;;5016349;28;21785;-63
2022/04/23 08:11:02;;;;;;;8.40;8.10;;;;;;;;;;5016865;28;20462;-63
2022/04/23 08:13:28;;;;;;;16.20;15.60;;;;;;;;;;5017623;28;20442;-62
2022/04/23 08:15:54;;;;;;;10.23;9.93;;;;;;;;;;5021717;28;20419;-62
2022/04/23 08:18:20;;;;;;;23.60;22.80;;;;;;;;;;5000816;28;20466;-63
2022/04/23 08:20:46;;;;;;;21.77;21.07;;;;;;;;;;5016713;28;20417;-61
2022/04/23 08:23:12;;;;;;;15.00;14.57;;;;;;;;;;5019240;28;20423;-61
2022/04/23 08:25:38;;;;;;;14.47;14.07;;;;;;;;;;5004163;28;20511;-63
2022/04/23 08:30:49;;;;;;;21.27;20.57;;;;;;;;;;5016503;28;20293;-63
2022/04/23 08:33:15;;;;;;;20.20;19.50;;;;;;;;;;5018666;28;20446;-58
2022/04/23 08:35:41;;;;;;;14.17;13.73;;;;;;;;;;5019855;28;20464;-63
2022/04/23 08:38:08;;;;;;;15.70;15.20;;;;;;;;;;5017024;28;20963;-63
2022/04/23 08:40:40;;;;;;;11.40;11.07;;;;;;;;;;5017237;28;21228;-63
2022/04/23 08:43:08;;;;;;;9.57;9.27;;;;;;;;;;5016983;28;20411;-63
2022/04/23 08:45:37;;;;;;;13.23;12.83;;;;;;;;;;5017220;28;20172;-63
2022/04/23 08:48:07;;;;;;;28.23;27.03;;;;;;;;;;5021665;28;20472;-63
2022/04/23 08:50:36;;;;;;;20.48;19.80;;;;;;;;;;5031387;28;20429;-63
2022/04/23 08:53:02;;;;;;;14.73;14.27;;;;;;;;;;5025511;28;20690;-63
2022/04/23 08:55:28;;;;;;;9.73;9.43;;;;;;;;;;5014970;28;20184;-62
2022/04/23 08:57:54;;;;;;;10.30;10.00;;;;;;;;;;5012667;28;21007;-63
2022/04/23 09:00:20;;;;;;;13.77;13.23;;;;;;;;;;5010811;28;20238;-63
2022/04/23 09:02:47;;;;;;;5.40;5.30;;;;;;;;;;5004071;28;20426;-61
2022/04/23 09:05:13;;;;;;;8.43;8.23;;;;;;;;;;5024440;28;20404;-62
2022/04/23 09:07:39;;;;;;;7.53;7.32;;;;;;;;;;5020479;28;20606;-62
2022/04/23 09:10:06;;;;;;;7.40;7.10;;;;;;;;;;5021392;28;20181;-63
2022/04/23 09:12:32;;;;;;;6.10;5.90;;;;;;;;;;5022336;28;20315;-60
2022/04/23 09:23:39;;;;;;;7.03;6.90;;;;;;;;;;5024175;28;20504;-63
2022/04/23 09:23:46;;;;;;;5.03;4.93;;;;;;;;;;4946985;28;20437;-59
2022/04/23 09:26:16;;;;;;;5.33;5.23;;;;;;;;;;4993003;28;20271;-62
2022/04/23 09:28:45;;;;;;;8.98;8.75;;;;;;;;;;5028247;28;20457;-56
2022/04/23 09:31:12;;;;;;;20.37;19.67;;;;;;;;;;5025673;28;20229;-63
2022/04/23 09:33:54;;;;;;;6.97;6.67;;;;;;;;;;5019999;28;20480;-63
2022/04/23 09:36:20;;;;;;;8.40;8.20;;;;;;;;;;5025694;28;20423;-63
2022/04/23 09:39:00;;;;;;;8.40;8.20;;;;;;;;;;5021234;28;21036;-63
2022/04/23 09:41:33;;;;;;;4.93;4.83;;;;;;;;;;5017938;28;20412;-62
2022/04/23 09:44:06;;;;;;;5.90;5.70;;;;;;;;;;5020801;28;20848;-62
2022/04/23 09:46:44;;;;;;;4.30;4.20;;;;;;;;;;5022323;28;20918;-62
2022/04/23 09:49:11;;;;;;;3.80;3.70;;;;;;;;;;5021871;28;20414;-62
2022/04/23 09:51:37;;;;;;;4.97;4.88;;;;;;;;;;5022801;28;20878;-62
2022/04/23 09:54:04;;;;;;;3.57;3.47;;;;;;;;;;5023638;28;20220;-62
2022/04/23 09:56:30;;;;;;;5.57;5.37;;;;;;;;;;5021778;28;20965;-62
2022/04/23 09:58:56;;;;;;;7.13;6.93;;;;;;;;;;5023145;28;20433;-62
2022/04/23 10:01:23;;;;;;;9.75;9.45;;;;;;;;;;5023232;28;20404;-62
2022/04/23 10:03:51;;;;;;;12.97;12.57;;;;;;;;;;5021618;28;20173;-61
2022/04/23 10:06:22;;;;;;;19.40;18.80;;;;;;;;;;5022785;28;20403;-63
2022/04/23 10:08:52;;;;;;;19.40;18.80;;;;;;;;;;5023660;28;20502;-62
2022/04/23 10:11:28;;;;;;;15.50;15.00;;;;;;;;;;5021975;28;20492;-63
2022/04/23 10:13:54;;;;;;;12.60;12.20;;;;;;;;;;5019946;28;20408;-62
2022/04/23 10:16:21;;;;;;;10.67;10.37;;;;;;;;;;5006445;28;20427;-62
2022/04/23 10:18:47;;;;;;;6.97;6.77;;;;;;;;;;5025553;28;20451;-62
2022/04/23 10:21:22;;;;;;;9.20;9.00;;;;;;;;;;5023861;28;20481;-63
2022/04/23 10:23:58;;;;;;;9.80;9.50;;;;;;;;;;5026249;28;20409;-63
2022/04/23 10:26:34;;;;;;;5.53;5.33;;;;;;;;;;5025309;28;20404;-63
2022/04/23 10:29:07;;;;;;;5.80;5.60;;;;;;;;;;5016238;28;20449;-63
2022/04/23 10:31:33;;;;;;;6.23;6.13;;;;;;;;;;5025646;28;20407;-63
2022/04/23 10:33:59;;;;;;;5.50;5.30;;;;;;;;;;5025704;28;20422;-63
2022/04/23 10:36:25;;;;;;;7.60;7.40;;;;;;;;;;5024960;28;20434;-63
2022/04/23 10:39:11;;;;;;;4.20;4.10;;;;;;;;;;5025559;28;20438;-63
2022/04/23 10:41:37;;;;;;;4.47;4.37;;;;;;;;;;5025435;28;20760;-63
2022/04/23 10:44:04;;;;;;;5.23;5.13;;;;;;;;;;5025172;28;20401;-63
2022/04/23 10:46:49;;;;;;;4.60;4.50;;;;;;;;;;5025251;28;20878;-62
2022/04/23 10:49:25;;;;;;;5.57;5.37;;;;;;;;;;5025678;28;20750;-63
2022/04/23 10:51:54;;;;;;;7.17;6.97;;;;;;;;;;5024351;28;20423;-62
2022/04/23 10:54:21;;;;;;;12.37;11.97;;;;;;;;;;5017300;28;20406;-62
2022/04/23 10:56:51;;;;;;;20.97;20.27;;;;;;;;;;5019732;28;20550;-62
2022/04/23 10:59:38;;;;;;;24.47;23.67;;;;;;;;;;5021285;28;20862;-62
2022/04/23 11:02:06;;;;;;;6.07;5.90;;;;;;;;;;5027433;28;20416;-62
2022/04/23 11:04:33;;;;;;;6.80;6.60;;;;;;;;;;5027624;28;20482;-62
2022/04/23 11:12:20;;;;;;;42.07;40.47;;;;;;;;;;5015304;28;20407;-62
2022/04/23 11:14:51;;;;;;;57.27;54.80;;;;;;;;;;5013308;28;20378;-62
2022/04/23 11:17:44;;;;;;;94.67;89.97;;;;;;;;;;5027062;28;20437;-62
2022/04/23 11:20:10;;;;;;;116.13;110.03;;;;;;;;;;5017831;28;20415;-61
2022/04/23 11:22:36;;;;;;;123.27;116.57;;;;;;;;;;5025347;28;20438;-62
2022/04/23 11:25:03;;;;;;;218.88;200.95;;;;;;;;;;5023980;28;20495;-62
2022/04/23 11:27:32;;;;;;;246.43;219.57;;;;;;;;;;5020918;28;20220;-62
2022/04/23 11:29:58;;;;;;;336.20;237.98;;;;;;;;;;5015967;28;20184;-62
2022/04/23 11:32:26;;;;;;;321.13;241.57;;;;;;;;;;4996682;28;20660;-62
2022/04/23 11:34:58;;;;;;;246.93;223.33;;;;;;;;;;5016230;28;20450;-64
2022/04/23 11:37:31;;;;;;;229.97;209.17;;;;;;;;;;5015385;28;20460;-63
2022/04/23 11:40:17;;;;;;;276.67;220.77;;;;;;;;;;5023503;28;20423;-62
2022/04/23 11:42:45;;;;;;;256.07;228.63;;;;;;;;;;5020693;28;20423;-62
2022/04/23 11:45:12;;;;;;;272.57;239.77;;;;;;;;;;5020317;28;20439;-62
2022/04/23 11:47:38;;;;;;;116.53;110.77;;;;;;;;;;5021502;28;21164;-62
2022/04/23 11:50:11;;;;;;;204.00;189.67;;;;;;;;;;5019819;28;20447;-62
2022/04/23 11:52:37;;;;;;;39.93;38.47;;;;;;;;;;5018404;28;20990;-62
2022/04/23 11:55:03;;;;;;;159.33;150.70;;;;;;;;;;5013342;28;20559;-62
2022/04/23 11:57:29;;;;;;;230.60;215.57;;;;;;;;;;5011816;28;20463;-62
2022/04/23 12:00:03;;;;;;;234.93;218.53;;;;;;;;;;5015153;28;20435;-63
2022/04/23 12:02:30;;;;;;;117.13;111.33;;;;;;;;;;5019367;28;20412;-62
2022/04/23 12:05:00;;;;;;;172.97;163.27;;;;;;;;;;5003764;28;20403;-63
2022/04/23 12:07:27;;;;;;;271.40;243.77;;;;;;;;;;5020247;28;21021;-62
2022/04/23 12:09:57;;;;;;;252.57;227.27;;;;;;;;;;5016605;28;20419;-63
2022/04/23 12:12:32;;;;;;;265.00;237.67;;;;;;;;;;5018063;28;20621;-61
2022/04/23 12:14:59;;;;;;;266.97;239.07;;;;;;;;;;5022559;28;20794;-62
2022/04/23 12:17:29;;;;;;;270.92;242.85;;;;;;;;;;5020789;28;21355;-61
2022/04/23 12:19:59;;;;;;;244.65;221.15;;;;;;;;;;5019112;28;20283;-63
2022/04/23 12:22:30;;;;;;;77.93;74.53;;;;;;;;;;5017883;28;20350;-63
2022/04/23 12:25:10;;;;;;;47.10;45.30;;;;;;;;;;5017796;28;20490;-63
2022/04/23 12:27:52;;;;;;;111.50;106.17;;;;;;;;;;5017974;28;20446;-63
2022/04/23 12:41:35;;;;;;;35.10;33.80;;;;;;;;;;5018858;28;20538;-62
2022/04/23 12:44:20;;;;;;;34.37;33.17;;;;;;;;;;5021680;28;20539;-63
2022/04/23 12:46:59;;;;;;;53.57;51.37;;;;;;;;;;5027799;28;20419;-62
2022/04/23 12:49:44;;;;;;;248.67;227.77;;;;;;;;;;5031128;28;20405;-62
2022/04/23 12:52:20;;;;;;;65.00;62.20;;;;;;;;;;5026140;28;20419;-62
2022/04/23 12:55:05;;;;;;;248.57;222.77;;;;;;;;;;5023151;28;20404;-62
2022/04/23 12:57:31;;;;;;;248.30;226.20;;;;;;;;;;5023546;28;20205;-62
2022/04/23 12:59:57;;;;;;;275.25;235.10;;;;;;;;;;5022130;28;20409;-62
2022/04/23 13:02:23;;;;;;;244.03;221.00;;;;;;;;;;5023419;28;20173;-63
2022/04/23 13:04:49;;;;;;;84.67;80.83;;;;;;;;;;5023554;28;20408;-62
2022/04/23 13:09:59;;;;;;;253.77;227.60;;;;;;;;;;5023193;28;20485;-62
2022/04/23 13:12:26;;;;;;;36.70;35.40;;;;;;;;;;5032049;28;20407;-62
2022/04/23 13:14:52;;;;;;;51.60;49.50;;;;;;;;;;5024453;28;20428;-63
2022/04/23 13:17:18;;;;;;;18.10;17.50;;;;;;;;;;5012902;28;20571;-62
2022/04/23 13:19:45;;;;;;;39.37;37.97;;;;;;;;;;5014114;28;20408;-62
2022/04/23 13:22:11;;;;;;;257.65;232.90;;;;;;;;;;5013312;28;20396;-63
2022/04/23 13:24:37;;;;;;;256.93;233.87;;;;;;;;;;5014015;28;20667;-62
2022/04/23 13:27:03;;;;;;;239.27;223.70;;;;;;;;;;5020507;28;20516;-64
2022/04/23 13:29:30;;;;;;;245.23;226.82;;;;;;;;;;5015470;28;20431;-63
2022/04/23 13:31:55;;;;;;;226.93;212.93;;;;;;;;;;5029295;28;20552;-63
2022/04/23 13:34:21;;;;;;;247.83;230.07;;;;;;;;;;5024116;28;20503;-62
2022/04/23 13:36:47;;;;;;;98.77;94.37;;;;;;;;;;5003425;28;20412;-63
2022/04/23 13:39:13;;;;;;;126.70;120.70;;;;;;;;;;5026203;28;20431;-63
2022/04/23 13:41:39;;;;;;;169.50;160.63;;;;;;;;;;5030611;28;20427;-64
2022/04/23 13:44:07;;;;;;;272.57;247.47;;;;;;;;;;5030890;28;20424;-63
2022/04/23 13:46:34;;;;;;;275.93;250.33;;;;;;;;;;5028473;28;20412;-63
2022/04/23 13:49:00;;;;;;;7.73;7.53;;;;;;;;;;5031154;28;20522;-63
2022/04/23 13:51:26;;;;;;;6.40;6.30;;;;;;;;;;5028328;28;20510;-63
2022/04/23 13:53:55;;;;;;;6.97;6.77;;;;;;;;;;5023190;28;20462;-63
2022/04/23 13:56:21;;;;;;;43.67;42.07;;;;;;;;;;5022430;28;20400;-62
2022/04/23 13:58:47;;;;;;;15.73;15.30;;;;;;;;;;5020781;28;20467;-62
2022/04/23 14:01:12;;;;;;;7.40;7.20;;;;;;;;;;5022056;28;20514;-63
2022/04/23 14:11:52;;;;;;;6.60;6.30;;;;;;;;;;5030352;28;20481;-63
2022/04/23 14:14:18;;;;;;;4.13;4.03;;;;;;;;;;5030755;28;20810;-62
2022/04/23 14:16:44;;;;;;;3.10;3.00;;;;;;;;;;5023539;28;20960;-63
2022/04/23 14:19:10;;;;;;;4.37;4.27;;;;;;;;;;5030528;28;20423;-63
2022/04/23 14:21:36;;;;;;;4.37;4.27;;;;;;;;;;5025587;28;20428;-63
2022/04/23 14:24:02;;;;;;;5.67;5.57;;;;;;;;;;5023289;28;20408;-63
2022/04/23 14:26:28;;;;;;;3.60;3.50;;;;;;;;;;5020630;28;20546;-63
2022/04/23 14:28:54;;;;;;;3.73;3.63;;;;;;;;;;5020406;28;20425;-63
2022/04/23 14:31:20;;;;;;;3.93;3.83;;;;;;;;;;5022140;28;20422;-63
2022/04/23 14:33:46;;;;;;;3.77;3.67;;;;;;;;;;5020965;28;20408;-64
2022/04/23 14:36:12;;;;;;;3.30;3.20;;;;;;;;;;5021044;28;20407;-63
2022/04/23 14:38:39;;;;;;;3.80;3.70;;;;;;;;;;5022364;28;20469;-63
2022/04/23 14:41:05;;;;;;;3.33;3.23;;;;;;;;;;5019917;28;20419;-62
2022/04/23 14:43:31;;;;;;;3.97;3.87;;;;;;;;;;5021805;28;20414;-63
2022/04/23 14:45:57;;;;;;;2.77;2.77;;;;;;;;;;5022942;28;20407;-63
2022/04/23 14:48:23;;;;;;;4.57;4.47;;;;;;;;;;5021090;28;20432;-62
2022/04/23 14:53:33;;;;;;;2.03;2.03;;;;;;;;;;5022692;28;20391;-62
2022/04/23 14:55:59;;;;;;;1.87;1.87;;;;;;;;;;5019713;28;20896;-64
2022/04/23 14:58:27;;;;;;;2.00;2.00;;;;;;;;;;5022384;28;20990;-61
2022/04/23 15:00:53;;;;;;;2.57;2.47;;;;;;;;;;5022068;28;20828;-62
2022/04/23 15:03:19;;;;;;;2.00;2.00;;;;;;;;;;5020697;28;20483;-62
2022/04/23 15:05:45;;;;;;;3.37;3.27;;;;;;;;;;5018735;28;20419;-62
2022/04/23 15:08:11;;;;;;;6.93;6.80;;;;;;;;;;5028914;28;20431;-62
2022/04/23 15:10:37;;;;;;;11.50;11.20;;;;;;;;;;5030148;28;20451;-63
2022/04/23 15:13:05;;;;;;;12.23;11.93;;;;;;;;;;5029082;28;20447;-63
2022/04/23 15:15:31;;;;;;;14.97;14.57;;;;;;;;;;5031203;28;20403;-62
2022/04/23 15:17:58;;;;;;;7.07;6.87;;;;;;;;;;5027586;28;20463;-63
2022/04/23 15:20:25;;;;;;;18.30;17.70;;;;;;;;;;5025262;28;20412;-63
2022/04/23 15:22:50;;;;;;;14.63;14.23;;;;;;;;;;5022662;28;20439;-63